Meteopozuelo

Informes METAR próximos a MeteoPozuelo

 

LEVS - Cuatro Vientos (Madrid) España
Actualización: 01/12/2020 05:30
Despejado
Despejado
 Viento del N
Viento: N 6 km/h
Temperatura: 7°C
Punto de Rocío: 4°C
Humedad: 81%
Barómetro: 1023 hPa
Resumen: Despejado
Visibility: greater than 10 km
2020/12/01 04:30 LEVS 010430Z AUTO 01003KT 330V040 CAVOK 07/04 Q1023
LEGT - Getafe (Madrid ) España
Actualización: 30/11/2020 21:30
NOT Current
Despejado
Despejado
 Viento del NE
Viento: NE 4 km/h
Temperatura: 9°C
Punto de Rocío: 6°C
Humedad: 82%
Barómetro: 1024 hPa
Resumen: Despejado
Visibility: greater than 10 km
2020/11/30 20:30 LEGT 302030Z 05002KT CAVOK 09/06 Q1024
 
LEMD - Barajas (Madrid) España
Actualización: 01/12/2020 05:30
Despejado
Despejado
 Viento del NNO
Viento: NNO 7 km/h
Temperatura: 1°C
Wind Chill: -2°C
Punto de Rocío: 1°C
Humedad: 100%
Barómetro: 1023 hPa
Resumen: Despejado
Visibility: greater than 10 km
2020/12/01 04:30 LEMD 010430Z 33004KT CAVOK 01/01 Q1023 NOSIG
LETO - Torrejon de Ardoz (Madrid) España
Actualización: 01/12/2020 05:30
Despejado
Despejado
 Viento del NE
Viento: NE 4 km/h
Temperatura: 1°C
Punto de Rocío: 1°C
Humedad: 100%
Barómetro: 1023 hPa
Resumen: Despejado
Visibility: greater than 10 km
2020/12/01 04:30 LETO 010430Z 05002KT CAVOK 01/01 Q1023 NOSIG
 
LECV - Colmenar Viejo (Madrid)
Actualización: 30/11/2020 19:00
NOT Current
Despejado
Despejado
 Viento del NNE
Viento: NNE 6 km/h
Temperatura: 11°C
Punto de Rocío: 3°C
Humedad: 58%
Barómetro: 1023 hPa
Resumen: Despejado
Visibility: greater than 10 km
2020/11/30 18:00 LECV 301800Z 03003KT CAVOK 11/03 Q1023